Time;durP1;ratioP1;P1;durP2;ratioP2;P2;SDS_P1;SDS_P2;PMS_P1;PMS_P2;Temp;Humidity;BMP_temperature;BMP_pressure;BME280_temperature;BME280_humidity;BME280_pressure;Samples;Min_cycle;Max_cycle;Signal;HPM_P1;HPM_P2
2023/03/09 00:00:39;;;;;;;;;2.25;1.00;;;;;21.29;41.92;99181.16;5036365;28;46065;-72
2023/03/09 00:03:04;;;;;;;;;2.00;1.00;;;;;21.25;41.84;99185.25;5036240;28;45254;-72
2023/03/09 00:05:30;;;;;;;;;3.00;1.67;;;;;21.28;41.56;99181.38;5036463;28;45291;-72
2023/03/09 00:07:55;;;;;;;;;1.67;1.00;;;;;21.29;41.37;99193.56;5036553;28;45288;-72
2023/03/09 00:10:21;;;;;;;;;1.00;1.00;;;;;21.23;41.46;99195.25;5036206;28;46363;-72
2023/03/09 00:12:47;;;;;;;;;2.00;2.00;;;;;21.25;42.11;99197.66;5035813;28;45316;-72
2023/03/09 00:15:12;;;;;;;;;6.33;2.33;;;;;21.25;41.54;99211.72;5036221;28;45374;-72
2023/03/09 00:17:38;;;;;;;;;1.00;1.00;;;;;21.23;41.44;99207.66;5036399;28;45315;-72
2023/03/09 00:20:17;;;;;;;;;4.00;1.33;;;;;21.22;41.98;99193.63;5036103;28;45943;-72
2023/03/09 00:22:53;;;;;;;;;1.00;1.00;;;;;21.13;41.93;99197.56;5036019;28;45489;-72
2023/03/09 00:25:22;;;;;;;;;5.00;0.67;;;;;21.16;41.39;99205.88;5035928;28;45456;-72
2023/03/09 00:27:50;;;;;;;;;1.00;1.00;;;;;21.19;41.47;99199.34;5036053;28;45366;-72
2023/03/09 00:30:16;;;;;;;;;1.33;1.33;;;;;21.18;41.67;99218.88;5035924;28;45435;-72
2023/03/09 00:32:42;;;;;;;;;0.33;0.33;;;;;21.06;41.68;99206.34;5035129;28;45292;-73
2023/03/09 00:35:08;;;;;;;;;1.50;1.50;;;;;21.17;41.61;99235.78;5035993;28;45386;-72
2023/03/09 00:37:34;;;;;;;;;2.00;1.67;;;;;21.16;41.46;99234.13;5035893;28;45390;-72
2023/03/09 00:40:00;;;;;;;;;1.00;0.00;;;;;21.14;41.69;99231.72;5035491;28;46166;-72
2023/03/09 00:42:26;;;;;;;;;2.00;1.00;;;;;21.14;41.54;99233.53;5035620;28;45703;-72
2023/03/09 00:44:52;;;;;;;;;0.00;0.00;;;;;21.14;41.58;99230.91;5035785;28;45447;-72
2023/03/09 00:47:18;;;;;;;;;3.00;1.00;;;;;21.14;41.78;99236.19;5018020;28;45311;-72
2023/03/09 00:49:44;;;;;;;;;1.00;1.00;;;;;21.07;41.99;99238.88;5035641;28;46237;-72
2023/03/09 00:52:10;;;;;;;;;2.00;2.00;;;;;21.08;41.79;99234.41;5035631;28;45791;-72
2023/03/09 00:54:35;;;;;;;;;1.00;1.00;;;;;21.12;41.26;99262.03;5035506;28;45312;-72
2023/03/09 00:57:01;;;;;;;;;3.67;1.00;;;;;21.10;41.78;99259.63;5035865;28;45290;-72
2023/03/09 00:59:28;;;;;;;;;4.00;1.00;;;;;21.10;41.71;99264.91;5035501;28;46389;-72
2023/03/09 01:01:53;;;;;;;;;2.00;1.00;;;;;21.03;41.98;99253.53;5035393;28;45416;-72
2023/03/09 01:04:18;;;;;;;;;3.33;0.00;;;;;21.06;41.36;99269.81;5035637;28;45616;-72
2023/03/09 01:06:44;;;;;;;;;2.67;0.00;;;;;21.10;41.55;99279.97;5035647;28;45360;-72
2023/03/09 01:09:09;;;;;;;;;4.00;0.00;;;;;21.10;41.58;99277.31;5034323;28;45330;-72
2023/03/09 01:11:35;;;;;;;;;4.00;0.67;;;;;21.01;41.37;99276.72;5035517;28;45402;-72
2023/03/09 01:14:01;;;;;;;;;2.75;2.00;;;;;21.05;41.46;99280.59;5035503;28;45347;-72
2023/03/09 01:16:26;;;;;;;;;0.75;0.75;;;;;20.98;41.67;99277.13;5035282;28;45252;-72
2023/03/09 01:18:51;;;;;;;;;1.00;1.00;;;;;21.08;41.66;99298.66;5035486;28;45406;-72
2023/03/09 01:21:17;;;;;;;;;2.00;1.00;;;;;21.08;41.50;99290.72;5035409;28;45335;-72
2023/03/09 01:23:42;;;;;;;;;1.67;1.33;;;;;21.08;41.66;99301.31;5035063;28;45448;-72
2023/03/09 01:26:08;;;;;;;;;3.00;0.25;;;;;21.10;41.63;99306.41;5035119;28;45625;-72
2023/03/09 01:28:34;;;;;;;;;1.00;1.00;;;;;20.98;41.05;99288.53;5035173;28;46265;-72
2023/03/09 01:31:00;;;;;;;;;2.00;0.33;;;;;21.07;41.38;99310.28;5035190;28;45501;-72
2023/03/09 01:33:25;;;;;;;;;1.00;1.00;;;;;21.09;41.21;99304.78;5035264;28;45372;-72
2023/03/09 01:35:51;;;;;;;;;1.00;1.00;;;;;21.06;41.21;99300.72;5035104;28;45438;-72
2023/03/09 01:38:16;;;;;;;;;1.00;1.00;;;;;21.06;41.30;99303.38;5034851;28;46221;-72
2023/03/09 01:40:44;;;;;;;;;1.00;1.00;;;;;21.09;41.21;99310.88;5035277;28;45368;-72
2023/03/09 01:43:43;;;;;;;;;1.00;0.00;;;;;21.09;41.09;99310.88;5035187;28;45395;-72
2023/03/09 01:46:29;;;;;;;;;1.00;1.00;;;;;21.08;41.35;99327.75;5034823;28;45558;-72
2023/03/09 01:49:33;;;;;;;;;2.00;1.00;;;;;21.06;41.07;99324.53;5034750;28;47047;-72
2023/03/09 01:52:13;;;;;;;;;1.00;1.00;;;;;21.06;41.42;99341.19;5034963;28;45395;-72
2023/03/09 01:54:42;;;;;;;;;1.00;1.00;;;;;21.06;41.55;99332.44;5035960;28;45430;-72
2023/03/09 01:57:47;;;;;;;;;1.00;1.00;;;;;21.06;41.08;99343.03;5038471;28;45414;-72
2023/03/09 02:00:18;;;;;;;;;1.50;0.00;;;;;20.95;41.28;99331.25;5037484;28;46320;-72
2023/03/09 02:02:48;;;;;;;;;3.00;1.00;;;;;21.06;41.37;99348.31;5038083;28;45387;-72
2023/03/09 02:05:23;;;;;;;;;1.25;1.00;;;;;21.05;40.91;99339.56;5038383;28;45312;-72
2023/03/09 02:07:51;;;;;;;;;1.00;1.00;;;;;21.05;41.40;99341.41;5037973;28;45432;-72
2023/03/09 02:10:23;;;;;;;;;2.00;0.00;;;;;21.04;41.53;99353.81;5038121;28;45985;-72
2023/03/09 02:12:53;;;;;;;;;2.67;0.67;;;;;20.94;41.05;99327.00;5038086;28;45355;-72
2023/03/09 02:15:20;;;;;;;;;1.00;1.00;;;;;21.04;41.28;99345.06;5038147;28;45413;-72
2023/03/09 02:17:46;;;;;;;;;1.67;1.00;;;;;21.02;41.07;99350.59;5038202;28;45284;-72
2023/03/09 02:20:16;;;;;;;;;0.00;0.00;;;;;21.02;41.06;99344.47;5037943;28;46379;-72
2023/03/09 02:22:43;;;;;;;;;2.50;1.00;;;;;21.02;41.33;99345.28;5037493;28;45335;-72
2023/03/09 02:25:33;;;;;;;;;0.00;0.00;;;;;21.00;40.99;99349.16;5037854;28;45400;-72
2023/03/09 02:27:59;;;;;;;;;0.33;0.00;;;;;21.02;41.23;99349.78;5038060;28;45395;-72
2023/03/09 02:30:28;;;;;;;;;0.33;0.33;;;;;21.01;41.43;99367.47;5019814;28;46348;-72
2023/03/09 02:33:09;;;;;;;;;2.33;0.00;;;;;21.01;41.32;99366.63;5038036;28;45371;-72
2023/03/09 02:35:35;;;;;;;;;2.00;1.00;;;;;21.00;41.36;99367.66;5037921;28;45354;-72
2023/03/09 02:38:00;;;;;;;;;0.67;0.67;;;;;21.00;41.47;99359.72;5037284;28;45310;-72
2023/03/09 02:40:34;;;;;;;;;2.00;0.00;;;;;20.99;41.27;99363.38;5037636;28;47085;-72
2023/03/09 02:43:03;;;;;;;;;1.00;1.00;;;;;20.94;41.06;99371.94;5037651;28;45366;-72
2023/03/09 02:45:29;;;;;;;;;0.25;0.25;;;;;20.98;41.25;99367.84;5037873;28;45308;-72
2023/03/09 02:47:56;;;;;;;;;1.00;1.00;;;;;20.95;40.83;99374.38;5037641;28;45418;-72
2023/03/09 02:50:22;;;;;;;;;2.00;1.00;;;;;20.94;40.97;99369.28;5037457;28;46195;-72
2023/03/09 02:52:47;;;;;;;;;0.33;0.33;;;;;20.98;40.81;99377.59;5037276;28;45349;-72
2023/03/09 02:55:13;;;;;;;;;1.67;1.00;;;;;20.98;41.19;99383.72;5037616;28;45268;-72
2023/03/09 02:57:40;;;;;;;;;2.00;0.33;;;;;20.90;40.98;99368.06;5037621;28;45391;-72
2023/03/09 03:00:10;;;;;;;;;0.33;0.00;;;;;20.98;41.10;99385.53;5037280;28;47077;-72
2023/03/09 03:02:36;;;;;;;;;0.00;0.00;;;;;20.95;40.83;99390.22;5037193;28;45393;-72
2023/03/09 03:05:01;;;;;;;;;0.00;0.00;;;;;20.98;40.73;99390.81;5036726;28;45327;-72
2023/03/09 03:07:27;;;;;;;;;0.33;0.33;;;;;20.98;40.78;99394.28;5036496;28;45382;-72
2023/03/09 03:09:52;;;;;;;;;1.33;1.00;;;;;20.89;41.05;99380.50;5037190;28;45936;-72
2023/03/09 03:12:18;;;;;;;;;0.00;0.00;;;;;20.99;40.87;99401.22;5037349;28;45371;-72
2023/03/09 03:14:44;;;;;;;;;0.00;0.00;;;;;21.00;40.76;99397.53;5037335;28;45458;-72
2023/03/09 03:17:09;;;;;;;;;0.67;0.67;;;;;21.02;40.99;99400.00;5037322;28;45416;-72
2023/03/09 03:19:34;;;;;;;;;0.00;0.00;;;;;20.91;40.75;99386.38;5018849;28;47261;-72
2023/03/09 03:22:00;;;;;;;;;1.67;0.00;;;;;21.01;40.96;99406.28;5037015;28;45453;-72
2023/03/09 03:24:25;;;;;;;;;0.00;0.00;;;;;20.99;40.80;99406.50;5036903;28;45387;-72
2023/03/09 03:26:51;;;;;;;;;0.00;0.00;;;;;20.99;40.93;99403.84;5037227;28;45409;-72
2023/03/09 03:29:16;;;;;;;;;2.00;0.67;;;;;20.94;40.92;99401.03;5036888;28;46314;-72
2023/03/09 03:31:41;;;;;;;;;1.00;1.00;;;;;20.95;40.89;99399.97;5036885;28;45427;-72
2023/03/09 03:34:07;;;;;;;;;2.67;1.00;;;;;20.98;40.99;99402.22;5036650;28;45350;-72
2023/03/09 03:36:32;;;;;;;;;1.00;0.25;;;;;21.00;41.12;99428.47;5036781;28;45359;-72
2023/03/09 03:38:57;;;;;;;;;0.00;0.00;;;;;20.97;40.93;99424.41;5036918;28;45392;-72
2023/03/09 03:41:22;;;;;;;;;0.67;0.00;;;;;20.98;40.72;99427.84;5036794;28;45343;-72
2023/03/09 03:43:48;;;;;;;;;1.00;0.00;;;;;20.98;41.17;99433.13;5036755;28;45387;-72
2023/03/09 03:46:13;;;;;;;;;0.67;0.33;;;;;20.95;40.88;99432.53;5036884;28;45443;-72
2023/03/09 03:48:39;;;;;;;;;0.00;0.00;;;;;20.97;40.81;99437.63;5036309;28;45917;-72
2023/03/09 03:51:05;;;;;;;;;0.33;0.00;;;;;20.91;40.77;99418.13;5036652;28;45236;-72
2023/03/09 03:53:31;;;;;;;;;0.00;0.00;;;;;20.98;40.95;99446.34;5036898;28;45376;-72
2023/03/09 03:55:56;;;;;;;;;1.00;1.00;;;;;20.96;41.14;99441.28;5036538;28;45388;-72
2023/03/09 03:58:22;;;;;;;;;0.67;0.67;;;;;20.97;41.24;99453.50;5036542;28;45930;-72
2023/03/09 04:00:47;;;;;;;;;2.00;1.00;;;;;20.96;41.08;99450.03;5036501;28;45389;-72
2023/03/09 04:03:12;;;;;;;;;2.67;0.33;;;;;20.97;41.09;99448.19;5036052;28;45330;-72
2023/03/09 04:05:38;;;;;;;;;0.00;0.00;;;;;20.96;40.87;99459.78;5036567;28;45343;-72
2023/03/09 04:08:03;;;;;;;;;0.67;0.67;;;;;20.94;40.81;99457.38;5036494;28;46033;-72
2023/03/09 04:10:29;;;;;;;;;1.50;0.50;;;;;20.96;40.79;99473.00;5036433;28;45378;-72
2023/03/09 04:12:54;;;;;;;;;5.00;1.00;;;;;20.91;40.82;99459.59;5036436;28;45255;-72
2023/03/09 04:15:19;;;;;;;;;2.33;1.00;;;;;20.95;40.96;99469.53;5036363;28;45395;-71
2023/03/09 04:17:47;;;;;;;;;1.67;1.33;;;;;20.96;41.07;99475.66;5035372;28;46029;-72
2023/03/09 04:20:12;;;;;;;;;1.00;0.67;;;;;20.95;40.85;99480.13;5036475;28;45267;-72
2023/03/09 04:22:38;;;;;;;;;2.00;0.00;;;;;20.94;40.60;99485.63;5036025;28;45308;-72
2023/03/09 04:25:04;;;;;;;;;0.67;0.67;;;;;20.96;40.88;99496.81;5036214;28;45304;-72
2023/03/09 04:27:29;;;;;;;;;0.67;0.00;;;;;20.95;40.49;99492.53;5036119;28;46295;-72
2023/03/09 04:29:55;;;;;;;;;2.00;0.00;;;;;20.84;40.88;99481.56;5018191;28;45470;-72
2023/03/09 04:32:20;;;;;;;;;2.00;1.00;;;;;20.95;40.65;99495.16;5035894;28;45424;-72
2023/03/09 04:34:45;;;;;;;;;1.00;1.00;;;;;20.94;40.81;99496.19;5035961;28;45440;-72
2023/03/09 04:37:11;;;;;;;;;0.33;0.33;;;;;20.95;40.96;99503.09;5035651;28;45519;-72
2023/03/09 04:39:36;;;;;;;;;0.00;0.00;;;;;20.94;40.64;99501.50;5035962;28;45532;-72
2023/03/09 04:42:02;;;;;;;;;0.00;0.00;;;;;20.96;40.64;99502.09;5036014;28;45525;-72
2023/03/09 04:44:27;;;;;;;;;2.67;0.00;;;;;20.96;40.72;99502.09;5035912;28;45367;-72
2023/03/09 04:46:53;;;;;;;;;1.00;0.00;;;;;20.97;40.53;99503.72;5035630;28;45626;-72
2023/03/09 04:49:18;;;;;;;;;0.00;0.00;;;;;20.98;40.65;99512.44;5035770;28;45407;-72
2023/03/09 04:51:43;;;;;;;;;2.00;0.00;;;;;20.95;40.51;99511.84;5035966;28;45359;-72
2023/03/09 04:54:09;;;;;;;;;1.67;1.00;;;;;20.96;40.62;99510.84;5035801;28;45431;-72
2023/03/09 04:56:34;;;;;;;;;1.00;1.00;;;;;20.95;40.89;99514.50;5035717;28;47160;-72
2023/03/09 04:58:59;;;;;;;;;0.00;0.00;;;;;20.95;40.50;99513.69;5035848;28;45417;-72
2023/03/09 05:01:24;;;;;;;;;0.00;0.00;;;;;20.88;40.90;99504.94;5017505;28;45912;-71
2023/03/09 05:03:50;;;;;;;;;0.00;0.00;;;;;20.96;40.89;99515.31;5035637;28;45425;-72
2023/03/09 05:06:15;;;;;;;;;1.00;0.00;;;;;20.95;40.76;99514.50;5035662;28;46216;-72
2023/03/09 05:08:40;;;;;;;;;0.00;0.00;;;;;20.94;40.73;99512.88;5035527;28;45316;-72
2023/03/09 05:11:06;;;;;;;;;0.33;0.33;;;;;20.96;40.66;99520.59;5035779;28;45421;-72
2023/03/09 05:13:31;;;;;;;;;1.00;1.00;;;;;20.96;40.90;99528.53;5035569;28;46300;-72
2023/03/09 05:15:56;;;;;;;;;2.00;1.00;;;;;20.96;40.58;99515.31;5035093;28;47094;-72
2023/03/09 05:18:22;;;;;;;;;0.00;0.00;;;;;20.93;41.05;99527.13;5035556;28;45425;-72
2023/03/09 05:20:47;;;;;;;;;2.00;1.00;;;;;20.94;40.64;99534.03;5035425;28;45331;-72
2023/03/09 05:23:12;;;;;;;;;0.00;0.00;;;;;20.94;40.88;99536.69;5035334;28;45491;-72
2023/03/09 05:25:38;;;;;;;;;2.00;0.33;;;;;20.95;40.58;99530.34;5035051;28;47099;-72
2023/03/09 05:28:04;;;;;;;;;0.00;0.00;;;;;20.95;40.63;99519.78;5035336;28;45387;-73
2023/03/09 05:30:30;;;;;;;;;2.67;0.00;;;;;20.95;41.17;99519.78;5037796;28;45400;-72
2023/03/09 05:32:55;;;;;;;;;2.33;0.67;;;;;20.95;40.54;99516.31;5038815;28;45517;-72
2023/03/09 05:35:21;;;;;;;;;0.00;0.00;;;;;20.95;40.83;99518.97;5038786;28;45308;-72
2023/03/09 05:37:46;;;;;;;;;0.00;0.00;;;;;20.92;40.72;99516.75;5038430;28;45516;-72
2023/03/09 05:40:13;;;;;;;;;1.33;0.67;;;;;20.95;40.47;99527.72;5038906;28;45304;-72
2023/03/09 05:42:39;;;;;;;;;0.00;0.00;;;;;20.95;40.70;99534.81;5038663;28;45342;-72
2023/03/09 05:45:05;;;;;;;;;2.00;0.00;;;;;20.93;40.52;99540.34;5038283;28;46196;-72
2023/03/09 05:47:31;;;;;;;;;2.33;1.00;;;;;20.94;40.84;99539.31;5038446;28;45372;-72
2023/03/09 05:49:57;;;;;;;;;0.33;0.33;;;;;20.94;40.75;99530.56;5038728;28;45343;-72
2023/03/09 05:52:22;;;;;;;;;0.00;0.00;;;;;20.91;40.83;99533.63;5020591;28;45508;-72
2023/03/09 05:54:47;;;;;;;;;0.00;0.00;;;;;20.94;40.78;99547.25;5038433;28;46349;-71
2023/03/09 05:57:13;;;;;;;;;1.00;0.00;;;;;20.90;40.50;99542.56;5038579;28;45401;-72
2023/03/09 05:59:39;;;;;;;;;2.67;1.00;;;;;20.92;40.49;99538.69;5038268;28;45303;-72
2023/03/09 06:02:05;;;;;;;;;0.33;0.33;;;;;20.91;40.46;99539.72;5038322;28;45335;-72
2023/03/09 06:04:30;;;;;;;;;0.67;0.67;;;;;20.90;40.59;99539.91;5038330;28;45268;-72
2023/03/09 06:06:56;;;;;;;;;0.33;0.00;;;;;20.92;40.65;99543.97;5038225;28;45342;-71
2023/03/09 06:09:22;;;;;;;;;0.00;0.00;;;;;20.91;40.74;99545.03;5038390;28;45438;-72
2023/03/09 06:11:47;;;;;;;;;0.00;0.00;;;;;20.93;40.69;99550.91;5038353;28;45406;-72
2023/03/09 06:14:13;;;;;;;;;0.67;0.00;;;;;20.93;40.46;99555.38;5037676;28;45398;-72
2023/03/09 06:16:38;;;;;;;;;1.67;0.00;;;;;20.92;40.74;99554.56;5038050;28;45313;-72
2023/03/09 06:19:04;;;;;;;;;1.00;0.00;;;;;20.95;40.50;99555.97;5038140;28;45415;-72
2023/03/09 06:21:29;;;;;;;;;2.00;0.00;;;;;20.87;40.39;99541.13;5036963;28;45439;-72
2023/03/09 06:23:56;;;;;;;;;2.00;0.00;;;;;20.87;40.45;99548.28;5037845;28;45706;-72
2023/03/09 06:26:23;;;;;;;;;0.00;0.00;;;;;20.98;40.30;99565.34;5037921;28;45320;-72
2023/03/09 06:28:48;;;;;;;;;1.33;0.00;;;;;20.94;40.84;99559.66;5037868;28;45455;-72
2023/03/09 06:31:16;;;;;;;;;2.33;0.00;;;;;20.89;40.55;99556.81;5037722;28;45679;-72
2023/03/09 06:33:42;;;;;;;;;3.00;0.67;;;;;20.96;40.31;99579.59;5037873;28;45284;-72
2023/03/09 06:36:10;;;;;;;;;0.00;0.00;;;;;20.95;40.54;99582.41;5037565;28;45360;-72
2023/03/09 06:38:35;;;;;;;;;0.00;0.00;;;;;20.91;40.35;99584.69;5037731;28;45354;-73
2023/03/09 06:41:00;;;;;;;;;1.00;1.00;;;;;20.94;40.55;99586.09;5037490;28;45383;-72
2023/03/09 06:43:26;;;;;;;;;2.00;0.33;;;;;20.91;40.49;99587.31;5037268;28;46045;-72
2023/03/09 06:45:51;;;;;;;;;0.67;0.00;;;;;20.94;40.61;99586.09;5037716;28;45356;-72
2023/03/09 06:48:16;;;;;;;;;2.00;1.00;;;;;20.94;40.63;99589.56;5037859;28;45289;-72
2023/03/09 06:50:43;;;;;;;;;1.00;1.00;;;;;20.95;40.58;99591.16;5037570;28;45518;-72
2023/03/09 06:53:09;;;;;;;;;1.00;1.00;;;;;20.94;40.66;99597.50;5037446;28;47050;-72
2023/03/09 06:55:36;;;;;;;;;1.00;1.00;;;;;20.89;40.44;99588.53;5037511;28;45284;-72
2023/03/09 06:58:01;;;;;;;;;1.00;1.00;;;;;20.94;40.74;99605.44;5037355;28;45410;-72
2023/03/09 07:00:26;;;;;;;;;0.67;0.00;;;;;20.94;40.47;99616.00;5037308;28;45339;-72
2023/03/09 07:02:51;;;;;;;;;0.00;0.00;;;;;20.93;40.69;99602.97;5037309;28;46024;-72
2023/03/09 07:05:17;;;;;;;;;1.00;1.00;;;;;20.95;40.43;99611.50;5037321;28;45346;-71
2023/03/09 07:07:42;;;;;;;;;0.00;0.00;;;;;20.94;40.67;99609.91;5037676;28;45503;-71
2023/03/09 07:10:12;;;;;;;;;0.00;0.00;;;;;20.94;40.32;99615.19;5037426;28;45374;-70
2023/03/09 07:12:38;;;;;;;;;3.00;0.00;;;;;20.93;40.45;99613.53;5030137;28;46106;-69
2023/03/09 07:15:05;;;;;;;;;1.67;1.67;;;;;20.93;40.75;99619.66;5035696;28;45633;-70
2023/03/09 07:17:30;;;;;;;;;1.00;0.00;;;;;20.94;41.07;99613.34;5036732;28;45390;-70
2023/03/09 07:19:56;;;;;;;;;0.00;0.00;;;;;20.94;40.72;99621.28;5035516;28;45272;-70
2023/03/09 07:22:22;;;;;;;;;3.00;0.00;;;;;20.93;40.90;99627.59;5030712;28;47190;-69
2023/03/09 07:24:47;;;;;;;;;0.67;0.00;;;;;20.95;41.11;99628.19;5034542;28;45308;-71
2023/03/09 07:27:13;;;;;;;;;2.33;1.00;;;;;20.96;41.20;99629.00;5036809;28;45422;-77
2023/03/09 07:29:40;;;;;;;;;0.00;0.00;;;;;20.93;40.99;99632.88;5036540;28;45331;-75
2023/03/09 07:32:05;;;;;;;;;1.00;1.00;;;;;20.93;41.15;99637.34;5036342;28;47214;-73
2023/03/09 07:34:32;;;;;;;;;0.00;0.00;;;;;20.96;41.38;99639.59;5017870;28;46908;-73
2023/03/09 07:36:58;;;;;;;;;1.33;0.00;;;;;20.98;41.05;99634.09;5036101;28;45446;-74
2023/03/09 07:39:23;;;;;;;;;2.00;0.00;;;;;20.93;41.30;99629.41;5033133;28;45407;-67
2023/03/09 07:41:49;;;;;;;;;1.00;1.00;;;;;20.96;41.28;99639.59;5028978;28;45560;-69
2023/03/09 07:44:14;;;;;;;;;2.00;1.00;;;;;20.87;41.30;99633.66;5032531;28;45408;-71
2023/03/09 07:46:40;;;;;;;;;0.00;0.00;;;;;20.99;41.03;99647.13;5033154;28;45371;-70
2023/03/09 07:49:05;;;;;;;;;1.33;0.00;;;;;20.98;40.85;99647.31;5032423;28;45922;-71
2023/03/09 07:51:31;;;;;;;;;1.33;0.00;;;;;21.00;41.14;99655.88;5032347;28;46179;-70
2023/03/09 07:53:57;;;;;;;;;0.00;0.00;;;;;20.99;40.86;99644.47;5031805;28;45744;-70
2023/03/09 07:56:23;;;;;;;;;1.00;1.00;;;;;21.01;40.91;99654.84;5032515;28;45852;-71
2023/03/09 07:58:51;;;;;;;;;0.00;0.00;;;;;21.00;40.84;99650.59;5032376;28;45540;-71
2023/03/09 08:01:18;;;;;;;;;1.00;0.00;;;;;21.00;41.03;99646.09;5028225;28;46237;-71
2023/03/09 08:03:45;;;;;;;;;0.33;0.33;;;;;21.01;41.19;99653.03;5023970;28;45862;-71
2023/03/09 08:06:12;;;;;;;;;0.00;0.00;;;;;21.01;40.92;99653.03;5031801;28;45896;-70
2023/03/09 08:08:38;;;;;;;;;0.00;0.00;;;;;21.01;41.42;99652.19;5031888;28;45382;-71
2023/03/09 08:11:04;;;;;;;;;2.33;1.00;;;;;21.00;40.97;99653.22;5030647;28;45362;-71
2023/03/09 08:13:31;;;;;;;;;1.00;1.00;;;;;21.00;40.87;99664.59;5031743;28;45539;-71
2023/03/09 08:16:00;;;;;;;;;1.33;1.00;;;;;20.93;41.20;99647.91;5031816;28;45354;-70
2023/03/09 08:18:25;;;;;;;;;1.00;1.00;;;;;21.01;40.94;99665.41;5031399;28;45413;-71
2023/03/09 08:20:51;;;;;;;;;0.00;0.00;;;;;21.00;41.09;99667.25;5031414;28;46180;-70
2023/03/09 08:23:17;;;;;;;;;0.00;0.00;;;;;21.00;41.19;99661.94;5031900;28;45373;-72
2023/03/09 08:25:43;;;;;;;;;2.33;1.00;;;;;20.99;40.91;99665.63;5032139;28;45955;-71
2023/03/09 08:28:10;;;;;;;;;2.25;1.00;;;;;20.99;41.23;99670.91;5032167;28;45433;-70
2023/03/09 08:30:37;;;;;;;;;3.00;0.00;;;;;20.99;41.25;99664.81;5031828;28;47488;-71
2023/03/09 08:33:02;;;;;;;;;0.25;0.00;;;;;21.00;41.30;99664.59;5031568;28;45928;-69
2023/03/09 08:35:32;;;;;;;;;2.00;0.75;;;;;20.99;41.15;99664.81;5031248;28;45523;-70
2023/03/09 08:37:57;;;;;;;;;7.00;1.00;;;;;20.99;41.42;99670.09;5030721;28;45379;-71
2023/03/09 08:40:23;;;;;;;;;0.00;0.00;;;;;20.99;40.86;99670.91;5029310;28;45540;-71
2023/03/09 08:42:48;;;;;;;;;1.33;0.00;;;;;21.00;41.31;99680.47;5031174;28;45480;-71
2023/03/09 08:45:13;;;;;;;;;1.33;0.00;;;;;20.99;41.16;99672.75;5031872;28;45744;-71
2023/03/09 08:47:39;;;;;;;;;0.00;0.00;;;;;20.98;41.18;99666.63;5031681;28;45633;-70
2023/03/09 08:50:06;;;;;;;;;2.67;0.00;;;;;20.98;41.26;99674.56;5030376;28;46128;-70
2023/03/09 08:52:37;;;;;;;;;1.00;0.00;;;;;20.97;41.09;99670.31;5031031;28;45288;-70
2023/03/09 08:55:05;;;;;;;;;0.67;0.00;;;;;20.99;41.04;99664.81;5030697;28;45854;-70
2023/03/09 08:57:31;;;;;;;;;1.00;0.00;;;;;20.98;40.84;99666.63;5031323;28;45630;-70
2023/03/09 08:59:56;;;;;;;;;0.00;0.00;;;;;20.92;41.00;99662.97;5030227;28;45343;-70
2023/03/09 09:02:22;;;;;;;;;0.67;0.67;;;;;20.87;40.83;99644.25;5030117;28;45338;-70
2023/03/09 09:04:47;;;;;;;;;3.33;0.67;;;;;20.96;40.94;99661.56;5031770;28;45421;-70
2023/03/09 09:07:14;;;;;;;;;1.00;1.00;;;;;20.96;40.86;99658.91;5030663;28;45635;-70
2023/03/09 09:09:40;;;;;;;;;0.00;0.00;;;;;20.98;41.13;99665.81;5031433;28;47210;-70
2023/03/09 09:12:07;;;;;;;;;2.00;1.00;;;;;20.92;40.96;99655.03;5030756;28;45280;-69
2023/03/09 09:14:33;;;;;;;;;0.67;0.67;;;;;20.98;41.31;99655.25;5029945;28;45438;-71
2023/03/09 09:16:58;;;;;;;;;0.00;0.00;;;;;20.91;40.90;99648.13;5031290;28;45522;-70
2023/03/09 09:19:24;;;;;;;;;0.67;0.67;;;;;20.97;41.06;99651.81;5031163;28;46090;-70
2023/03/09 09:21:52;;;;;;;;;0.00;0.00;;;;;20.98;41.13;99648.13;5030990;28;45448;-71
2023/03/09 09:24:17;;;;;;;;;2.00;2.00;;;;;20.99;40.74;99654.22;5030808;28;45460;-71
2023/03/09 09:26:44;;;;;;;;;3.00;0.00;;;;;20.99;40.79;99655.06;5022160;28;45624;-71
2023/03/09 09:29:09;;;;;;;;;1.67;0.00;;;;;20.99;41.10;99665.63;5030321;28;45933;-70
2023/03/09 09:31:34;;;;;;;;;0.67;0.67;;;;;20.99;41.13;99662.16;5031124;28;46461;-71
2023/03/09 09:34:00;;;;;;;;;0.00;0.00;;;;;21.00;40.92;99661.16;5030751;28;45732;-71
2023/03/09 09:36:26;;;;;;;;;0.00;0.00;;;;;20.90;41.10;99643.84;5027634;28;46377;-71
2023/03/09 09:38:53;;;;;;;;;0.50;0.50;;;;;20.99;40.95;99657.69;5030332;28;46140;-71
2023/03/09 09:41:38;;;;;;;;;1.00;0.00;;;;;21.00;40.83;99651.38;5031259;28;45362;-71
2023/03/09 09:44:09;;;;;;;;;0.00;0.00;;;;;20.98;41.03;99636.72;5030231;28;45352;-71
2023/03/09 09:46:36;;;;;;;;;1.00;0.00;;;;;21.00;41.07;99642.66;5030946;28;46017;-71
2023/03/09 09:49:03;;;;;;;;;0.33;0.33;;;;;21.01;40.78;99646.91;5028848;28;45390;-70
2023/03/09 09:51:38;;;;;;;;;0.67;0.67;;;;;21.02;41.18;99638.81;5028912;28;45488;-71
2023/03/09 09:54:22;;;;;;;;;1.33;0.00;;;;;21.02;40.77;99635.34;5029173;28;45405;-70
2023/03/09 09:56:50;;;;;;;;;0.33;0.00;;;;;21.03;40.93;99643.06;5030756;28;45418;-70
2023/03/09 09:59:29;;;;;;;;;1.00;0.00;;;;;21.02;40.68;99638.81;5030432;28;46304;-71
2023/03/09 10:02:14;;;;;;;;;1.00;1.00;;;;;21.04;40.80;99636.78;5012849;28;45364;-70
2023/03/09 10:04:45;;;;;;;;;1.00;1.00;;;;;21.03;40.66;99624.56;5030262;28;45576;-70
2023/03/09 10:07:22;;;;;;;;;1.33;1.00;;;;;21.05;41.12;99635.75;5030160;28;45385;-71
2023/03/09 10:10:16;;;;;;;;;4.00;0.33;;;;;21.05;40.79;99627.81;5028898;28;45474;-70
2023/03/09 10:12:43;;;;;;;;;2.67;1.00;;;;;21.01;40.77;99607.25;5030872;28;45447;-70
2023/03/09 10:15:19;;;;;;;;;0.67;0.33;;;;;21.06;40.72;99631.28;5030682;28;45303;-70
2023/03/09 10:17:51;;;;;;;;;1.00;1.00;;;;;21.06;40.83;99632.09;5031358;28;46555;-72
2023/03/09 10:20:25;;;;;;;;;2.00;1.00;;;;;21.07;40.87;99619.69;5033269;28;46547;-72
2023/03/09 10:22:54;;;;;;;;;1.00;1.00;;;;;21.06;40.66;99621.50;5032722;28;45325;-72
2023/03/09 10:25:21;;;;;;;;;1.00;1.00;;;;;21.07;41.06;99624.97;5033027;28;45457;-72
2023/03/09 10:27:55;;;;;;;;;0.67;0.67;;;;;21.06;40.86;99618.88;5032875;28;46643;-72
2023/03/09 10:30:32;;;;;;;;;0.00;0.00;;;;;21.08;41.33;99609.94;5032059;28;46191;-70
2023/03/09 10:33:17;;;;;;;;;1.00;1.00;;;;;21.09;41.28;99627.41;5032936;28;45462;-72
2023/03/09 10:35:48;;;;;;;;;3.00;0.67;;;;;21.10;41.18;99613.19;5033493;28;45443;-70
2023/03/09 10:38:16;;;;;;;;;2.00;0.00;;;;;21.10;40.89;99594.66;5031826;28;45734;-73
2023/03/09 10:40:46;;;;;;;;;2.75;0.75;;;;;21.11;41.15;99612.97;5034046;28;47229;-71
2023/03/09 10:43:26;;;;;;;;;1.67;1.00;;;;;21.12;41.37;99605.84;5032190;28;45440;-71
2023/03/09 10:45:53;;;;;;;;;3.00;1.00;;;;;21.11;40.88;99598.91;5031789;28;45341;-72
2023/03/09 10:48:23;;;;;;;;;0.67;0.33;;;;;21.12;41.27;99609.31;5033280;28;45506;-70
2023/03/09 10:51:00;;;;;;;;;1.67;0.67;;;;;21.13;41.08;99610.13;5032901;28;45989;-72
2023/03/09 10:53:35;;;;;;;;;1.00;1.00;;;;;21.14;41.07;99609.09;5032326;28;45347;-71
2023/03/09 10:56:14;;;;;;;;;0.00;0.00;;;;;21.14;41.20;99609.91;5033009;28;46398;-70
2023/03/09 10:58:40;;;;;;;;;2.67;0.33;;;;;21.15;41.47;99594.88;5033480;28;45477;-72
2023/03/09 11:01:26;;;;;;;;;0.33;0.33;;;;;21.15;41.02;99597.50;5032785;28;46021;-71
2023/03/09 11:03:52;;;;;;;;;1.33;1.00;;;;;21.14;41.14;99601.97;5031597;28;45327;-72
2023/03/09 11:06:23;;;;;;;;;2.33;1.00;;;;;21.15;41.16;99597.50;5032883;28;45839;-71
2023/03/09 11:09:09;;;;;;;;;0.00;0.00;;;;;21.14;41.67;99604.63;5030987;28;45401;-72
2023/03/09 11:11:36;;;;;;;;;3.00;1.00;;;;;21.15;41.05;99606.28;5033136;28;47026;-72
2023/03/09 11:14:02;;;;;;;;;1.00;1.00;;;;;21.15;41.24;99605.44;5032714;28;45387;-72
2023/03/09 11:16:34;;;;;;;;;1.33;0.00;;;;;21.10;41.64;99592.03;5033189;28;45253;-71
2023/03/09 11:19:11;;;;;;;;;2.33;1.67;;;;;21.15;41.60;99600.16;5031943;28;45367;-71
2023/03/09 11:21:43;;;;;;;;;4.00;1.00;;;;;21.15;41.51;99600.97;5033164;28;47104;-72
2023/03/09 11:24:13;;;;;;;;;5.00;0.00;;;;;21.15;41.44;99594.88;5032594;28;45272;-72
2023/03/09 11:26:45;;;;;;;;;0.00;0.00;;;;;21.13;41.53;99579.19;5031395;28;45441;-70
2023/03/09 11:29:34;;;;;;;;;0.00;0.00;;;;;21.15;41.20;99592.22;5032749;28;45822;-72
2023/03/09 11:32:00;;;;;;;;;0.00;0.00;;;;;21.15;41.52;99586.94;5032156;28;46656;-72
2023/03/09 11:34:30;;;;;;;;;0.00;0.00;;;;;21.09;41.20;99574.50;5032565;28;46177;-70
2023/03/09 11:37:02;;;;;;;;;1.00;0.00;;;;;21.16;40.94;99583.25;5032539;28;45369;-70